Aeroporto :
LOGIN :

Iscrizione | Disclaimer

   EN    FR    IT 

 










Sommario :    VFR   VFR Marginale   IFR   IFR Intensivo   IFR Molto Intensivo
Visibilità : 
Base nubi : 
>= 8 km
>= 3000ft
5 / 8 km
1000 / 3000 ft
1500m / 5 km
500 / 1000 ft
800 / 1500m
200 / 500 ft
< 800m
< 200 ft
Simboli :   Temporali  Nebbia  Neve Forte  Precipitazioni Forti  Vento > 20 kt
SIGMETs :   Varie  Temporali  Ghiacco  Turbolenza  Onda orograficha  Ceneri Vulcaniche







- Altitudine del aeroporto : 59 ft
- Codice IATA : TSF


LIPH - Treviso

ULTIMO METAR :
  • 260620Z 07008KT 050V110 9999 BKN010 16/14 Q1015

METARs OBSOLETI :
  • 260550Z 07008KT 9999 BKN010 16/14 Q1015
  • 260520Z 04005KT 010V080 9999 BKN010 16/14 Q1015
  • 260450Z AUTO 02004KT 350V060 9000 OVC017/// 16/14 Q1015
  • 260420Z AUTO 05006KT 010V070 9000 FEW018/// SCT029/// BKN083/// 15/14 Q1015
  • 260350Z AUTO 05007KT 8000 FEW042/// BKN083/// 15/14 Q1015
  • 260320Z AUTO 05006KT 8000 SCT019/// BKN084/// 15/14 Q1015

TAF TAF LIPH
Valido dal 26 a 06 ore il 27 a 06 ore UTC


260500Z 2606/2706 08007KT 7000 SCT020
TEMPO 2606/2609 RA
TEMPO 2609/2620 3000 TSRA
Nessun NOTAM noto per questo aeroporto.
2 SIGMETs conosciuti per la FIR Milano (LIMM) :
 
Turbolenza severa
LIMM SIGMET 4 VALID 260445/260845 LIIP
LIMM MILANO FIR SEV TURB FCST ENTIRE FIR FL220/380 MOV E WKN=
Temporali affogati
LIMM SIGMET 3 VALID 260445/260845 LIIP
LIMM MILANO FIR EMBD TS FCST N OF LINE N4407 E00650 - N4507 E01311 TOP FL320 STNR NC=



MetMap, La meteo Aeronautica in un colpo d'occhio ! - Copyright ORBIFLY Dicembre 2007 - Disclaimer

ORBIFLY MET'MAP TEAM :

Programmazione e sviluppo : Alexandra Zaïnal
Concezione e sviluppo : Baudouin d'Aumeries
Co-Programmazione e sviluppo : Marc-Olivier Méhu
Supporto tecnico e logistico : Manuel Goepfert
Aiuto per la traduzione : Arnaldo La Scala

Contatto : metmap@orbifly.com




FONTI E CREDITI :

   NOAA